sensor_id;sensor_type;location;lat;lon;timestamp;pressure;altitude;pressure_sealevel;temperature
35582;BMP180;21687;48.900;9.188;2023-11-21T00:02:25;97816.00;;;7.20
35582;BMP180;21687;48.900;9.188;2023-11-21T00:04:53;97813.00;;;7.10
35582;BMP180;21687;48.900;9.188;2023-11-21T00:07:19;97819.00;;;7.20
35582;BMP180;21687;48.900;9.188;2023-11-21T00:09:47;97813.00;;;7.20
35582;BMP180;21687;48.900;9.188;2023-11-21T00:12:14;97801.00;;;7.20
35582;BMP180;21687;48.900;9.188;2023-11-21T00:14:40;97801.00;;;7.30
35582;BMP180;21687;48.900;9.188;2023-11-21T00:17:07;97802.00;;;7.30
35582;BMP180;21687;48.900;9.188;2023-11-21T00:19:33;97799.00;;;7.40
35582;BMP180;21687;48.900;9.188;2023-11-21T00:22:00;97805.00;;;7.40
35582;BMP180;21687;48.900;9.188;2023-11-21T00:24:27;97793.00;;;7.50
35582;BMP180;21687;48.900;9.188;2023-11-21T00:26:53;97802.00;;;7.50
35582;BMP180;21687;48.900;9.188;2023-11-21T00:29:20;97798.00;;;7.50
35582;BMP180;21687;48.900;9.188;2023-11-21T00:31:46;97791.00;;;7.50
35582;BMP180;21687;48.900;9.188;2023-11-21T00:34:12;97784.00;;;7.50
35582;BMP180;21687;48.900;9.188;2023-11-21T00:36:39;97787.00;;;7.60
35582;BMP180;21687;48.900;9.188;2023-11-21T00:39:05;97793.00;;;7.60
35582;BMP180;21687;48.900;9.188;2023-11-21T00:41:32;97795.00;;;7.60
35582;BMP180;21687;48.900;9.188;2023-11-21T00:43:59;97787.00;;;7.60
35582;BMP180;21687;48.900;9.188;2023-11-21T00:46:25;97784.00;;;7.60
35582;BMP180;21687;48.900;9.188;2023-11-21T00:48:54;97785.00;;;7.60
35582;BMP180;21687;48.900;9.188;2023-11-21T00:51:21;97789.00;;;7.70
35582;BMP180;21687;48.900;9.188;2023-11-21T00:53:48;97790.00;;;7.70
35582;BMP180;21687;48.900;9.188;2023-11-21T00:56:15;97790.00;;;7.70
35582;BMP180;21687;48.900;9.188;2023-11-21T00:58:41;97795.00;;;7.60
35582;BMP180;21687;48.900;9.188;2023-11-21T01:01:12;97793.00;;;7.60
35582;BMP180;21687;48.900;9.188;2023-11-21T01:03:39;97786.00;;;7.70
35582;BMP180;21687;48.900;9.188;2023-11-21T01:06:05;97793.00;;;7.70
35582;BMP180;21687;48.900;9.188;2023-11-21T01:08:34;97786.00;;;7.70
35582;BMP180;21687;48.900;9.188;2023-11-21T01:11:00;97793.00;;;7.70
35582;BMP180;21687;48.900;9.188;2023-11-21T01:13:26;97795.00;;;7.80
35582;BMP180;21687;48.900;9.188;2023-11-21T01:15:56;97794.00;;;7.80
35582;BMP180;21687;48.900;9.188;2023-11-21T01:18:22;97790.00;;;7.80
35582;BMP180;21687;48.900;9.188;2023-11-21T01:20:51;97789.00;;;7.80
35582;BMP180;21687;48.900;9.188;2023-11-21T01:23:19;97782.00;;;7.90
35582;BMP180;21687;48.900;9.188;2023-11-21T01:25:46;97792.00;;;7.90
35582;BMP180;21687;48.900;9.188;2023-11-21T01:28:12;97789.00;;;7.80
35582;BMP180;21687;48.900;9.188;2023-11-21T01:30:38;97788.00;;;7.90
35582;BMP180;21687;48.900;9.188;2023-11-21T01:33:05;97786.00;;;7.80
35582;BMP180;21687;48.900;9.188;2023-11-21T01:35:31;97792.00;;;7.80
35582;BMP180;21687;48.900;9.188;2023-11-21T01:37:57;97787.00;;;7.80
35582;BMP180;21687;48.900;9.188;2023-11-21T01:40:24;97794.00;;;7.80
35582;BMP180;21687;48.900;9.188;2023-11-21T01:42:52;97789.00;;;7.80
35582;BMP180;21687;48.900;9.188;2023-11-21T01:45:19;97795.00;;;7.80
35582;BMP180;21687;48.900;9.188;2023-11-21T01:47:46;97794.00;;;7.80
35582;BMP180;21687;48.900;9.188;2023-11-21T01:50:16;97778.00;;;7.80
35582;BMP180;21687;48.900;9.188;2023-11-21T01:52:48;97788.00;;;7.80
35582;BMP180;21687;48.900;9.188;2023-11-21T01:55:16;97785.00;;;7.80
35582;BMP180;21687;48.900;9.188;2023-11-21T01:57:46;97788.00;;;7.90
35582;BMP180;21687;48.900;9.188;2023-11-21T02:00:13;97783.00;;;7.80
35582;BMP180;21687;48.900;9.188;2023-11-21T02:02:47;97791.00;;;7.90
35582;BMP180;21687;48.900;9.188;2023-11-21T02:05:15;97793.00;;;7.90
35582;BMP180;21687;48.900;9.188;2023-11-21T02:07:44;97791.00;;;7.90
35582;BMP180;21687;48.900;9.188;2023-11-21T02:10:11;97792.00;;;8.00
35582;BMP180;21687;48.900;9.188;2023-11-21T02:12:41;97789.00;;;8.00
35582;BMP180;21687;48.900;9.188;2023-11-21T02:15:12;97785.00;;;7.90
35582;BMP180;21687;48.900;9.188;2023-11-21T02:17:46;97786.00;;;8.00
35582;BMP180;21687;48.900;9.188;2023-11-21T02:20:13;97792.00;;;7.90
35582;BMP180;21687;48.900;9.188;2023-11-21T02:22:51;97788.00;;;8.00
35582;BMP180;21687;48.900;9.188;2023-11-21T02:25:29;97790.00;;;8.00
35582;BMP180;21687;48.900;9.188;2023-11-21T02:27:58;97789.00;;;8.00
35582;BMP180;21687;48.900;9.188;2023-11-21T02:30:25;97788.00;;;8.00
35582;BMP180;21687;48.900;9.188;2023-11-21T02:32:52;97788.00;;;8.00
35582;BMP180;21687;48.900;9.188;2023-11-21T02:35:23;97782.00;;;8.00
35582;BMP180;21687;48.900;9.188;2023-11-21T02:41:13;97791.00;;;8.00
35582;BMP180;21687;48.900;9.188;2023-11-21T02:43:40;97778.00;;;8.00
35582;BMP180;21687;48.900;9.188;2023-11-21T02:46:06;97784.00;;;8.10
35582;BMP180;21687;48.900;9.188;2023-11-21T02:48:33;97771.00;;;8.10
35582;BMP180;21687;48.900;9.188;2023-11-21T02:50:59;97777.00;;;8.10
35582;BMP180;21687;48.900;9.188;2023-11-21T02:53:25;97779.00;;;8.10
35582;BMP180;21687;48.900;9.188;2023-11-21T02:55:52;97772.00;;;8.10
35582;BMP180;21687;48.900;9.188;2023-11-21T02:58:18;97773.00;;;8.10
35582;BMP180;21687;48.900;9.188;2023-11-21T03:00:44;97772.00;;;7.90
35582;BMP180;21687;48.900;9.188;2023-11-21T03:03:10;97772.00;;;7.80
35582;BMP180;21687;48.900;9.188;2023-11-21T03:05:37;97767.00;;;7.70
35582;BMP180;21687;48.900;9.188;2023-11-21T03:08:03;97776.00;;;7.80
35582;BMP180;21687;48.900;9.188;2023-11-21T03:10:29;97777.00;;;7.70
35582;BMP180;21687;48.900;9.188;2023-11-21T03:12:56;97781.00;;;7.80
35582;BMP180;21687;48.900;9.188;2023-11-21T03:15:23;97779.00;;;7.90
35582;BMP180;21687;48.900;9.188;2023-11-21T03:17:49;97794.00;;;7.90
35582;BMP180;21687;48.900;9.188;2023-11-21T03:20:16;97788.00;;;7.90
35582;BMP180;21687;48.900;9.188;2023-11-21T03:22:42;97787.00;;;7.90
35582;BMP180;21687;48.900;9.188;2023-11-21T03:25:09;97785.00;;;7.90
35582;BMP180;21687;48.900;9.188;2023-11-21T03:27:37;97790.00;;;7.90
35582;BMP180;21687;48.900;9.188;2023-11-21T03:30:05;97793.00;;;7.90
35582;BMP180;21687;48.900;9.188;2023-11-21T03:32:33;97796.00;;;7.90
35582;BMP180;21687;48.900;9.188;2023-11-21T03:35:00;97787.00;;;7.90
35582;BMP180;21687;48.900;9.188;2023-11-21T03:37:28;97789.00;;;7.90
35582;BMP180;21687;48.900;9.188;2023-11-21T03:39:56;97788.00;;;7.90
35582;BMP180;21687;48.900;9.188;2023-11-21T03:42:22;97791.00;;;7.90
35582;BMP180;21687;48.900;9.188;2023-11-21T03:44:48;97799.00;;;7.90
35582;BMP180;21687;48.900;9.188;2023-11-21T03:47:15;97777.00;;;7.90
35582;BMP180;21687;48.900;9.188;2023-11-21T03:49:41;97785.00;;;7.90
35582;BMP180;21687;48.900;9.188;2023-11-21T03:52:08;97785.00;;;7.90
35582;BMP180;21687;48.900;9.188;2023-11-21T03:54:35;97794.00;;;7.90
35582;BMP180;21687;48.900;9.188;2023-11-21T03:57:02;97790.00;;;7.90
35582;BMP180;21687;48.900;9.188;2023-11-21T03:59:28;97789.00;;;7.80
35582;BMP180;21687;48.900;9.188;2023-11-21T04:01:56;97788.00;;;7.70
35582;BMP180;21687;48.900;9.188;2023-11-21T04:04:23;97799.00;;;7.70
35582;BMP180;21687;48.900;9.188;2023-11-21T04:06:49;97800.00;;;7.70
35582;BMP180;21687;48.900;9.188;2023-11-21T04:09:17;97805.00;;;7.70
35582;BMP180;21687;48.900;9.188;2023-11-21T04:11:44;97802.00;;;7.70
35582;BMP180;21687;48.900;9.188;2023-11-21T04:14:11;97797.00;;;7.70
35582;BMP180;21687;48.900;9.188;2023-11-21T04:16:38;97806.00;;;7.70
35582;BMP180;21687;48.900;9.188;2023-11-21T04:19:04;97804.00;;;7.80
35582;BMP180;21687;48.900;9.188;2023-11-21T04:21:30;97811.00;;;7.80
35582;BMP180;21687;48.900;9.188;2023-11-21T04:23:59;97804.00;;;7.80
35582;BMP180;21687;48.900;9.188;2023-11-21T04:26:25;97804.00;;;7.80
35582;BMP180;21687;48.900;9.188;2023-11-21T04:28:51;97806.00;;;7.80
35582;BMP180;21687;48.900;9.188;2023-11-21T04:31:18;97809.00;;;7.70
35582;BMP180;21687;48.900;9.188;2023-11-21T04:33:44;97809.00;;;7.70
35582;BMP180;21687;48.900;9.188;2023-11-21T04:36:11;97806.00;;;7.70
35582;BMP180;21687;48.900;9.188;2023-11-21T04:38:37;97806.00;;;7.70
35582;BMP180;21687;48.900;9.188;2023-11-21T04:41:04;97801.00;;;7.60
35582;BMP180;21687;48.900;9.188;2023-11-21T04:43:30;97810.00;;;7.60
35582;BMP180;21687;48.900;9.188;2023-11-21T04:45:56;97809.00;;;7.60
35582;BMP180;21687;48.900;9.188;2023-11-21T04:48:22;97810.00;;;7.60
35582;BMP180;21687;48.900;9.188;2023-11-21T04:50:49;97811.00;;;7.60
35582;BMP180;21687;48.900;9.188;2023-11-21T04:53:15;97807.00;;;7.70
35582;BMP180;21687;48.900;9.188;2023-11-21T04:55:41;97811.00;;;7.70
35582;BMP180;21687;48.900;9.188;2023-11-21T04:58:08;97811.00;;;7.70
35582;BMP180;21687;48.900;9.188;2023-11-21T05:00:35;97812.00;;;7.70
35582;BMP180;21687;48.900;9.188;2023-11-21T05:03:03;97815.00;;;7.70
35582;BMP180;21687;48.900;9.188;2023-11-21T05:05:30;97811.00;;;7.60
35582;BMP180;21687;48.900;9.188;2023-11-21T05:07:56;97816.00;;;7.60
35582;BMP180;21687;48.900;9.188;2023-11-21T05:10:22;97806.00;;;7.60
35582;BMP180;21687;48.900;9.188;2023-11-21T05:12:49;97819.00;;;7.60
35582;BMP180;21687;48.900;9.188;2023-11-21T05:15:18;97819.00;;;7.70
35582;BMP180;21687;48.900;9.188;2023-11-21T05:17:45;97813.00;;;7.60
35582;BMP180;21687;48.900;9.188;2023-11-21T05:20:12;97816.00;;;7.60
35582;BMP180;21687;48.900;9.188;2023-11-21T05:22:40;97817.00;;;7.60
35582;BMP180;21687;48.900;9.188;2023-11-21T05:25:08;97821.00;;;7.60
35582;BMP180;21687;48.900;9.188;2023-11-21T05:27:35;97823.00;;;7.60
35582;BMP180;21687;48.900;9.188;2023-11-21T05:30:05;97832.00;;;7.50
35582;BMP180;21687;48.900;9.188;2023-11-21T05:32:32;97836.00;;;7.50
35582;BMP180;21687;48.900;9.188;2023-11-21T05:34:59;97844.00;;;7.50
35582;BMP180;21687;48.900;9.188;2023-11-21T05:37:25;97848.00;;;7.60
35582;BMP180;21687;48.900;9.188;2023-11-21T05:39:53;97848.00;;;7.60
35582;BMP180;21687;48.900;9.188;2023-11-21T05:42:23;97852.00;;;7.60
35582;BMP180;21687;48.900;9.188;2023-11-21T05:44:49;97851.00;;;7.60
35582;BMP180;21687;48.900;9.188;2023-11-21T05:47:16;97845.00;;;7.60
35582;BMP180;21687;48.900;9.188;2023-11-21T05:49:42;97849.00;;;7.60
35582;BMP180;21687;48.900;9.188;2023-11-21T05:52:08;97856.00;;;7.50
35582;BMP180;21687;48.900;9.188;2023-11-21T05:54:34;97861.00;;;7.60
35582;BMP180;21687;48.900;9.188;2023-11-21T05:57:01;97864.00;;;7.60
35582;BMP180;21687;48.900;9.188;2023-11-21T05:59:27;97858.00;;;7.60
35582;BMP180;21687;48.900;9.188;2023-11-21T06:01:53;97866.00;;;7.60
35582;BMP180;21687;48.900;9.188;2023-11-21T06:04:20;97859.00;;;7.60
35582;BMP180;21687;48.900;9.188;2023-11-21T06:06:51;97867.00;;;7.60
35582;BMP180;21687;48.900;9.188;2023-11-21T06:09:17;97883.00;;;7.60
35582;BMP180;21687;48.900;9.188;2023-11-21T06:11:44;97869.00;;;7.60
35582;BMP180;21687;48.900;9.188;2023-11-21T06:14:10;97871.00;;;7.60
35582;BMP180;21687;48.900;9.188;2023-11-21T06:16:37;97868.00;;;7.60
35582;BMP180;21687;48.900;9.188;2023-11-21T06:19:03;97878.00;;;7.60
35582;BMP180;21687;48.900;9.188;2023-11-21T06:21:31;97864.00;;;7.60
35582;BMP180;21687;48.900;9.188;2023-11-21T06:23:57;97877.00;;;7.50
35582;BMP180;21687;48.900;9.188;2023-11-21T06:26:24;97877.00;;;7.50
35582;BMP180;21687;48.900;9.188;2023-11-21T06:28:51;97887.00;;;7.50
35582;BMP180;21687;48.900;9.188;2023-11-21T06:31:18;97892.00;;;7.50
35582;BMP180;21687;48.900;9.188;2023-11-21T06:33:45;97889.00;;;7.50
35582;BMP180;21687;48.900;9.188;2023-11-21T06:36:11;97896.00;;;7.50
35582;BMP180;21687;48.900;9.188;2023-11-21T06:38:38;97893.00;;;7.50
35582;BMP180;21687;48.900;9.188;2023-11-21T06:41:04;97890.00;;;7.50
35582;BMP180;21687;48.900;9.188;2023-11-21T06:43:30;97910.00;;;7.50
35582;BMP180;21687;48.900;9.188;2023-11-21T06:45:57;97903.00;;;7.60
35582;BMP180;21687;48.900;9.188;2023-11-21T06:48:25;97912.00;;;7.60
35582;BMP180;21687;48.900;9.188;2023-11-21T06:50:51;97912.00;;;7.60
35582;BMP180;21687;48.900;9.188;2023-11-21T06:53:18;97914.00;;;7.70
35582;BMP180;21687;48.900;9.188;2023-11-21T06:55:44;97914.00;;;7.70
35582;BMP180;21687;48.900;9.188;2023-11-21T06:58:11;97909.00;;;7.70
35582;BMP180;21687;48.900;9.188;2023-11-21T07:00:37;97921.00;;;7.70
35582;BMP180;21687;48.900;9.188;2023-11-21T07:03:04;97918.00;;;7.80
35582;BMP180;21687;48.900;9.188;2023-11-21T07:05:30;97924.00;;;7.80
35582;BMP180;21687;48.900;9.188;2023-11-21T07:07:56;97931.00;;;7.80
35582;BMP180;21687;48.900;9.188;2023-11-21T07:10:23;97918.00;;;7.80
35582;BMP180;21687;48.900;9.188;2023-11-21T07:12:49;97925.00;;;7.90
35582;BMP180;21687;48.900;9.188;2023-11-21T07:15:17;97928.00;;;7.90
35582;BMP180;21687;48.900;9.188;2023-11-21T07:17:45;97931.00;;;7.90
35582;BMP180;21687;48.900;9.188;2023-11-21T07:20:13;97933.00;;;7.90
35582;BMP180;21687;48.900;9.188;2023-11-21T07:22:40;97939.00;;;7.90
35582;BMP180;21687;48.900;9.188;2023-11-21T07:25:06;97944.00;;;7.90
35582;BMP180;21687;48.900;9.188;2023-11-21T07:27:33;97952.00;;;8.00
35582;BMP180;21687;48.900;9.188;2023-11-21T07:30:02;97947.00;;;8.10
35582;BMP180;21687;48.900;9.188;2023-11-21T07:32:31;97957.00;;;8.10
35582;BMP180;21687;48.900;9.188;2023-11-21T07:34:57;97959.00;;;8.20
35582;BMP180;21687;48.900;9.188;2023-11-21T07:37:25;97964.00;;;8.20
35582;BMP180;21687;48.900;9.188;2023-11-21T07:39:54;97966.00;;;8.20
35582;BMP180;21687;48.900;9.188;2023-11-21T07:42:24;97956.00;;;8.30
35582;BMP180;21687;48.900;9.188;2023-11-21T07:44:52;97969.00;;;8.30
35582;BMP180;21687;48.900;9.188;2023-11-21T07:47:19;97970.00;;;8.30
35582;BMP180;21687;48.900;9.188;2023-11-21T07:49:45;97971.00;;;8.40
35582;BMP180;21687;48.900;9.188;2023-11-21T07:52:13;97974.00;;;8.40
35582;BMP180;21687;48.900;9.188;2023-11-21T07:54:39;97976.00;;;8.50
35582;BMP180;21687;48.900;9.188;2023-11-21T07:57:05;97975.00;;;8.60
35582;BMP180;21687;48.900;9.188;2023-11-21T07:59:32;97975.00;;;8.60
35582;BMP180;21687;48.900;9.188;2023-11-21T08:01:58;97986.00;;;8.60
35582;BMP180;21687;48.900;9.188;2023-11-21T08:04:25;97978.00;;;8.60
35582;BMP180;21687;48.900;9.188;2023-11-21T08:06:51;97986.00;;;8.60
35582;BMP180;21687;48.900;9.188;2023-11-21T08:09:17;97987.00;;;8.60
35582;BMP180;21687;48.900;9.188;2023-11-21T08:11:44;97983.00;;;8.60
35582;BMP180;21687;48.900;9.188;2023-11-21T08:14:10;97987.00;;;8.80
35582;BMP180;21687;48.900;9.188;2023-11-21T08:16:36;97987.00;;;8.90
35582;BMP180;21687;48.900;9.188;2023-11-21T08:19:02;97993.00;;;9.00
35582;BMP180;21687;48.900;9.188;2023-11-21T08:21:29;97992.00;;;9.00
35582;BMP180;21687;48.900;9.188;2023-11-21T08:23:55;97993.00;;;9.10
35582;BMP180;21687;48.900;9.188;2023-11-21T08:26:24;97997.00;;;9.20
35582;BMP180;21687;48.900;9.188;2023-11-21T08:28:51;98002.00;;;9.30
35582;BMP180;21687;48.900;9.188;2023-11-21T08:31:27;97997.00;;;9.40
35582;BMP180;21687;48.900;9.188;2023-11-21T08:33:53;98001.00;;;9.50
35582;BMP180;21687;48.900;9.188;2023-11-21T08:36:25;98005.00;;;9.50
35582;BMP180;21687;48.900;9.188;2023-11-21T08:38:52;98004.00;;;9.70
35582;BMP180;21687;48.900;9.188;2023-11-21T08:41:18;98000.00;;;9.60
35582;BMP180;21687;48.900;9.188;2023-11-21T08:43:51;98005.00;;;9.80
35582;BMP180;21687;48.900;9.188;2023-11-21T08:46:19;98000.00;;;9.80
35582;BMP180;21687;48.900;9.188;2023-11-21T08:48:45;98000.00;;;10.00
35582;BMP180;21687;48.900;9.188;2023-11-21T08:51:12;98005.00;;;10.20
35582;BMP180;21687;48.900;9.188;2023-11-21T08:53:39;98013.00;;;10.30
35582;BMP180;21687;48.900;9.188;2023-11-21T08:56:05;98018.00;;;10.40
35582;BMP180;21687;48.900;9.188;2023-11-21T08:58:32;98026.00;;;10.40
35582;BMP180;21687;48.900;9.188;2023-11-21T09:00:58;98022.00;;;10.30
35582;BMP180;21687;48.900;9.188;2023-11-21T09:03:25;98023.00;;;10.00
35582;BMP180;21687;48.900;9.188;2023-11-21T09:05:51;98026.00;;;9.90
35582;BMP180;21687;48.900;9.188;2023-11-21T09:08:18;98021.00;;;9.90
35582;BMP180;21687;48.900;9.188;2023-11-21T09:10:44;98024.00;;;9.90
35582;BMP180;21687;48.900;9.188;2023-11-21T09:13:13;98026.00;;;10.00
35582;BMP180;21687;48.900;9.188;2023-11-21T09:15:39;98032.00;;;9.70
35582;BMP180;21687;48.900;9.188;2023-11-21T09:18:06;98027.00;;;9.70
35582;BMP180;21687;48.900;9.188;2023-11-21T09:20:32;98034.00;;;9.80
35582;BMP180;21687;48.900;9.188;2023-11-21T09:22:59;98038.00;;;9.90
35582;BMP180;21687;48.900;9.188;2023-11-21T09:25:25;98039.00;;;9.90
35582;BMP180;21687;48.900;9.188;2023-11-21T09:27:51;98040.00;;;10.00
35582;BMP180;21687;48.900;9.188;2023-11-21T09:30:17;98047.00;;;10.10
35582;BMP180;21687;48.900;9.188;2023-11-21T09:32:44;98054.00;;;10.20
35582;BMP180;21687;48.900;9.188;2023-11-21T09:35:11;98050.00;;;10.20
35582;BMP180;21687;48.900;9.188;2023-11-21T09:37:40;98045.00;;;10.20
35582;BMP180;21687;48.900;9.188;2023-11-21T09:40:10;98055.00;;;10.00
35582;BMP180;21687;48.900;9.188;2023-11-21T09:42:56;98049.00;;;10.10
35582;BMP180;21687;48.900;9.188;2023-11-21T09:45:27;98055.00;;;10.30
35582;BMP180;21687;48.900;9.188;2023-11-21T09:47:55;98065.00;;;10.40
35582;BMP180;21687;48.900;9.188;2023-11-21T09:50:22;98064.00;;;10.40
35582;BMP180;21687;48.900;9.188;2023-11-21T09:55:29;98065.00;;;9.90
35582;BMP180;21687;48.900;9.188;2023-11-21T09:57:57;98059.00;;;9.90
35582;BMP180;21687;48.900;9.188;2023-11-21T10:00:24;98063.00;;;9.80
35582;BMP180;21687;48.900;9.188;2023-11-21T10:02:52;98076.00;;;9.60
35582;BMP180;21687;48.900;9.188;2023-11-21T10:05:19;98064.00;;;9.50
35582;BMP180;21687;48.900;9.188;2023-11-21T10:07:52;98072.00;;;9.50
35582;BMP180;21687;48.900;9.188;2023-11-21T10:10:20;98077.00;;;9.40
35582;BMP180;21687;48.900;9.188;2023-11-21T10:12:50;98074.00;;;9.30
35582;BMP180;21687;48.900;9.188;2023-11-21T10:15:22;98068.00;;;9.30
35582;BMP180;21687;48.900;9.188;2023-11-21T10:17:49;98079.00;;;9.30
35582;BMP180;21687;48.900;9.188;2023-11-21T10:20:16;98073.00;;;9.20
35582;BMP180;21687;48.900;9.188;2023-11-21T10:22:44;98073.00;;;9.20
35582;BMP180;21687;48.900;9.188;2023-11-21T10:25:10;98079.00;;;9.10
35582;BMP180;21687;48.900;9.188;2023-11-21T10:27:37;98070.00;;;9.10
35582;BMP180;21687;48.900;9.188;2023-11-21T10:30:08;98072.00;;;9.20
35582;BMP180;21687;48.900;9.188;2023-11-21T10:32:43;98072.00;;;9.20
35582;BMP180;21687;48.900;9.188;2023-11-21T10:35:10;98075.00;;;9.20
35582;BMP180;21687;48.900;9.188;2023-11-21T10:37:41;98082.00;;;9.40
35582;BMP180;21687;48.900;9.188;2023-11-21T10:40:09;98081.00;;;9.50
35582;BMP180;21687;48.900;9.188;2023-11-21T10:42:39;98080.00;;;9.60
35582;BMP180;21687;48.900;9.188;2023-11-21T10:45:09;98094.00;;;9.70
35582;BMP180;21687;48.900;9.188;2023-11-21T10:47:44;98088.00;;;9.70
35582;BMP180;21687;48.900;9.188;2023-11-21T10:50:10;98088.00;;;9.90
35582;BMP180;21687;48.900;9.188;2023-11-21T10:52:39;98081.00;;;9.90
35582;BMP180;21687;48.900;9.188;2023-11-21T10:55:19;98083.00;;;9.80
35582;BMP180;21687;48.900;9.188;2023-11-21T10:57:53;98078.00;;;9.90
35582;BMP180;21687;48.900;9.188;2023-11-21T11:00:20;98076.00;;;10.00
35582;BMP180;21687;48.900;9.188;2023-11-21T11:02:51;98083.00;;;10.20
35582;BMP180;21687;48.900;9.188;2023-11-21T11:05:20;98084.00;;;10.40
35582;BMP180;21687;48.900;9.188;2023-11-21T11:08:13;98085.00;;;10.50
35582;BMP180;21687;48.900;9.188;2023-11-21T11:10:38;98078.00;;;10.60
35582;BMP180;21687;48.900;9.188;2023-11-21T11:13:06;98085.00;;;10.70
35582;BMP180;21687;48.900;9.188;2023-11-21T11:15:32;98069.00;;;10.70
35582;BMP180;21687;48.900;9.188;2023-11-21T11:17:59;98082.00;;;10.70
35582;BMP180;21687;48.900;9.188;2023-11-21T11:20:31;98080.00;;;10.40
35582;BMP180;21687;48.900;9.188;2023-11-21T11:26:05;98092.00;;;10.30
35582;BMP180;21687;48.900;9.188;2023-11-21T11:28:57;98085.00;;;10.20
35582;BMP180;21687;48.900;9.188;2023-11-21T11:34:35;98086.00;;;10.00
35582;BMP180;21687;48.900;9.188;2023-11-21T11:37:06;98093.00;;;10.00
35582;BMP180;21687;48.900;9.188;2023-11-21T11:39:42;98087.00;;;10.00
35582;BMP180;21687;48.900;9.188;2023-11-21T11:42:16;98090.00;;;9.90
35582;BMP180;21687;48.900;9.188;2023-11-21T11:47:16;98094.00;;;9.80
35582;BMP180;21687;48.900;9.188;2023-11-21T11:53:12;98096.00;;;10.00
35582;BMP180;21687;48.900;9.188;2023-11-21T11:55:39;98091.00;;;10.00
35582;BMP180;21687;48.900;9.188;2023-11-21T11:58:06;98087.00;;;10.00
35582;BMP180;21687;48.900;9.188;2023-11-21T12:00:36;98089.00;;;9.80
35582;BMP180;21687;48.900;9.188;2023-11-21T12:03:07;98080.00;;;9.80
35582;BMP180;21687;48.900;9.188;2023-11-21T12:05:35;98089.00;;;9.70
35582;BMP180;21687;48.900;9.188;2023-11-21T12:08:05;98096.00;;;9.70
35582;BMP180;21687;48.900;9.188;2023-11-21T12:10:34;98100.00;;;9.90
35582;BMP180;21687;48.900;9.188;2023-11-21T12:13:05;98094.00;;;10.00
35582;BMP180;21687;48.900;9.188;2023-11-21T12:15:34;98099.00;;;10.20
35582;BMP180;21687;48.900;9.188;2023-11-21T12:18:01;98110.00;;;10.40
35582;BMP180;21687;48.900;9.188;2023-11-21T12:20:28;98098.00;;;10.50
35582;BMP180;21687;48.900;9.188;2023-11-21T12:22:56;98093.00;;;10.50
35582;BMP180;21687;48.900;9.188;2023-11-21T12:25:24;98097.00;;;10.50
35582;BMP180;21687;48.900;9.188;2023-11-21T12:27:55;98099.00;;;10.40
35582;BMP180;21687;48.900;9.188;2023-11-21T12:30:26;98097.00;;;10.40
35582;BMP180;21687;48.900;9.188;2023-11-21T12:32:56;98107.00;;;10.30
35582;BMP180;21687;48.900;9.188;2023-11-21T12:35:24;98109.00;;;10.00
35582;BMP180;21687;48.900;9.188;2023-11-21T12:37:52;98108.00;;;9.70
35582;BMP180;21687;48.900;9.188;2023-11-21T12:40:19;98116.00;;;9.60
35582;BMP180;21687;48.900;9.188;2023-11-21T12:42:47;98114.00;;;9.20
35582;BMP180;21687;48.900;9.188;2023-11-21T12:45:24;98115.00;;;9.00
35582;BMP180;21687;48.900;9.188;2023-11-21T12:48:11;98117.00;;;8.80
35582;BMP180;21687;48.900;9.188;2023-11-21T12:50:38;98118.00;;;8.80
35582;BMP180;21687;48.900;9.188;2023-11-21T12:53:09;98119.00;;;8.80
35582;BMP180;21687;48.900;9.188;2023-11-21T12:55:38;98130.00;;;8.70
35582;BMP180;21687;48.900;9.188;2023-11-21T12:58:06;98125.00;;;8.70
35582;BMP180;21687;48.900;9.188;2023-11-21T13:00:41;98127.00;;;8.70
35582;BMP180;21687;48.900;9.188;2023-11-21T13:03:10;98126.00;;;8.70
35582;BMP180;21687;48.900;9.188;2023-11-21T13:05:39;98130.00;;;8.70
35582;BMP180;21687;48.900;9.188;2023-11-21T13:08:09;98136.00;;;8.70
35582;BMP180;21687;48.900;9.188;2023-11-21T13:10:39;98142.00;;;8.70
35582;BMP180;21687;48.900;9.188;2023-11-21T13:13:07;98137.00;;;8.70
35582;BMP180;21687;48.900;9.188;2023-11-21T13:15:48;98139.00;;;8.60
35582;BMP180;21687;48.900;9.188;2023-11-21T13:18:15;98136.00;;;8.70
35582;BMP180;21687;48.900;9.188;2023-11-21T13:20:43;98132.00;;;8.70
35582;BMP180;21687;48.900;9.188;2023-11-21T13:23:10;98136.00;;;8.70
35582;BMP180;21687;48.900;9.188;2023-11-21T13:25:42;98148.00;;;8.60
35582;BMP180;21687;48.900;9.188;2023-11-21T13:28:11;98149.00;;;8.70
35582;BMP180;21687;48.900;9.188;2023-11-21T13:30:38;98141.00;;;8.70
35582;BMP180;21687;48.900;9.188;2023-11-21T13:33:07;98155.00;;;8.70
35582;BMP180;21687;48.900;9.188;2023-11-21T13:35:38;98160.00;;;8.60
35582;BMP180;21687;48.900;9.188;2023-11-21T13:38:10;98158.00;;;8.60
35582;BMP180;21687;48.900;9.188;2023-11-21T13:40:37;98156.00;;;8.60
35582;BMP180;21687;48.900;9.188;2023-11-21T13:43:16;98143.00;;;8.50
35582;BMP180;21687;48.900;9.188;2023-11-21T13:45:45;98160.00;;;8.50
35582;BMP180;21687;48.900;9.188;2023-11-21T13:48:13;98159.00;;;8.40
35582;BMP180;21687;48.900;9.188;2023-11-21T13:50:46;98171.00;;;8.50
35582;BMP180;21687;48.900;9.188;2023-11-21T13:53:24;98156.00;;;8.50
35582;BMP180;21687;48.900;9.188;2023-11-21T13:55:51;98177.00;;;8.50
35582;BMP180;21687;48.900;9.188;2023-11-21T13:58:23;98175.00;;;8.60
35582;BMP180;21687;48.900;9.188;2023-11-21T14:01:08;98185.00;;;8.50
35582;BMP180;21687;48.900;9.188;2023-11-21T14:03:51;98171.00;;;8.50
35582;BMP180;21687;48.900;9.188;2023-11-21T14:06:23;98179.00;;;8.50
35582;BMP180;21687;48.900;9.188;2023-11-21T14:08:54;98190.00;;;8.40
35582;BMP180;21687;48.900;9.188;2023-11-21T14:11:22;98188.00;;;8.40
35582;BMP180;21687;48.900;9.188;2023-11-21T14:13:49;98194.00;;;8.50
35582;BMP180;21687;48.900;9.188;2023-11-21T14:16:15;98195.00;;;8.50
35582;BMP180;21687;48.900;9.188;2023-11-21T14:18:46;98197.00;;;8.50
35582;BMP180;21687;48.900;9.188;2023-11-21T14:21:41;98198.00;;;8.70
35582;BMP180;21687;48.900;9.188;2023-11-21T14:24:14;98204.00;;;8.80
35582;BMP180;21687;48.900;9.188;2023-11-21T14:26:44;98211.00;;;8.80
35582;BMP180;21687;48.900;9.188;2023-11-21T14:29:18;98203.00;;;8.80
35582;BMP180;21687;48.900;9.188;2023-11-21T14:31:47;98205.00;;;8.80
35582;BMP180;21687;48.900;9.188;2023-11-21T14:34:13;98213.00;;;8.70
35582;BMP180;21687;48.900;9.188;2023-11-21T14:36:41;98216.00;;;8.80
35582;BMP180;21687;48.900;9.188;2023-11-21T14:39:07;98209.00;;;8.80
35582;BMP180;21687;48.900;9.188;2023-11-21T14:41:37;98221.00;;;8.70
35582;BMP180;21687;48.900;9.188;2023-11-21T14:44:05;98219.00;;;8.70